Time;durP1;ratioP1;P1;durP2;ratioP2;P2;SDS_P1;SDS_P2;PMS_P1;PMS_P2;Temp;Humidity;BMP_temperature;BMP_pressure;BME280_temperature;BME280_humidity;BME280_pressure;Samples;Min_cycle;Max_cycle;Signal;HPM_P1;HPM_P2
2023/07/22 00:01:22;;;;;;;;;;;;;;;;;;5010867;28;19959;-51
2023/07/22 00:03:48;;;;;;;;;;;;;;;;;;5020563;28;19952;-51
2023/07/22 00:06:14;;;;;;;;;;;;;;;;;;5025160;28;20022;-51
2023/07/22 00:08:41;;;;;;;;;;;;;;;;;;5027098;28;20312;-51
2023/07/22 00:11:07;;;;;;;;;;;;;;;;;;5025204;28;19917;-51
2023/07/22 00:13:33;;;;;;;;;;;;;;;;;;5029940;28;20301;-51
2023/07/22 00:15:59;;;;;;;;;;;;;;;;;;5029889;28;20381;-51
2023/07/22 00:18:27;;;;;;;;;;;;;;;;;;5027188;28;20326;-51
2023/07/22 00:20:53;;;;;;;;;;;;;;;;;;5009898;28;20269;-51
2023/07/22 00:23:19;;;;;;;;;;;;;;;;;;5017016;28;19921;-51
2023/07/22 00:25:45;;;;;;;;;;;;;;;;;;5030103;28;19921;-51
2023/07/22 00:28:11;;;;;;;;;;;;;;;;;;5028814;28;19933;-52
2023/07/22 00:30:37;;;;;;;;;;;;;;;;;;5030021;28;20411;-52
2023/07/22 00:33:03;;;;;;;;;;;;;;;;;;5019329;28;20421;-52
2023/07/22 00:35:29;;;;;;;;;;;;;;;;;;5023961;28;19909;-52
2023/07/22 00:37:55;;;;;;;;;;;;;;;;;;5024618;28;20381;-52
2023/07/22 00:40:22;;;;;;;;;;;;;;;;;;5029535;28;19960;-52
2023/07/22 00:42:48;;;;;;;;;;;;;;;;;;5029566;28;19921;-52
2023/07/22 00:45:14;;;;;;;;;;;;;;;;;;5028622;28;19959;-52
2023/07/22 00:47:40;;;;;;;;;;;;;;;;;;5029677;28;20431;-51
2023/07/22 00:50:06;;;;;;;;;;;;;;;;;;5019307;28;19916;-52
2023/07/22 00:52:32;;;;;;;;;;;;;;;;;;5022501;28;20491;-52
2023/07/22 00:54:58;;;;;;;;;;;;;;;;;;5028412;28;20325;-52
2023/07/22 00:57:25;;;;;;;;;;;;;;;;;;5029723;28;19913;-52
2023/07/22 00:59:51;;;;;;;;;;;;;;;;;;5029014;28;19978;-52
2023/07/22 01:02:17;;;;;;;;;;;;;;;;;;5028319;28;20372;-52
2023/07/22 01:04:43;;;;;;;;;;;;;;;;;;5028088;28;20051;-52
2023/07/22 01:07:10;;;;;;;;;;;;;;;;;;5028337;28;19921;-52
2023/07/22 01:09:36;;;;;;;;;;;;;;;;;;5027043;28;20032;-52
2023/07/22 01:12:02;;;;;;;;;;;;;;;;;;5017071;28;19950;-52
2023/07/22 01:14:28;;;;;;;;;;;;;;;;;;5025207;28;19912;-52
2023/07/22 01:16:54;;;;;;;;;;;;;;;;;;5028416;28;19969;-52
2023/07/22 01:19:20;;;;;;;;;;;;;;;;;;5020884;28;20035;-52
2023/07/22 01:21:46;;;;;;;;;;;;;;;;;;5020854;28;19948;-52
2023/07/22 01:24:12;;;;;;;;;;;;;;;;;;5023975;28;19956;-51
2023/07/22 01:26:38;;;;;;;;;;;;;;;;;;5028315;28;19916;-52
2023/07/22 01:29:04;;;;;;;;;;;;;;;;;;5014928;28;19960;-52
2023/07/22 01:31:30;;;;;;;;;;;;;;;;;;5026920;28;19944;-52
2023/07/22 01:33:58;;;;;;;;;;;;;;;;;;5029555;28;19949;-52
2023/07/22 01:36:25;;;;;;;;;;;;;;;;;;5025472;28;19909;-51
2023/07/22 01:38:51;;;;;;;;;;;;;;;;;;5015408;28;20391;-52
2023/07/22 01:41:17;;;;;;;;;;;;;;;;;;5028384;28;19949;-51
2023/07/22 01:43:43;;;;;;;;;;;;;;;;;;5013779;28;19957;-52
2023/07/22 01:46:09;;;;;;;;;;;;;;;;;;5025769;28;20025;-52
2023/07/22 01:48:35;;;;;;;;;;;;;;;;;;5028558;28;20296;-52
2023/07/22 01:51:01;;;;;;;;;;;;;;;;;;5020199;28;19913;-52
2023/07/22 01:53:27;;;;;;;;;;;;;;;;;;5010587;28;20151;-51
2023/07/22 01:55:54;;;;;;;;;;;;;;;;;;5016089;28;19944;-52
2023/07/22 01:58:20;;;;;;;;;;;;;;;;;;5024330;28;20436;-52
2023/07/22 02:00:46;;;;;;;;;;;;;;;;;;5027834;28;20503;-51
2023/07/22 02:03:13;;;;;;;;;;;;;;;;;;5028749;28;20387;-52
2023/07/22 02:05:39;;;;;;;;;;;;;;;;;;5020096;28;19956;-51
2023/07/22 02:08:05;;;;;;;;;;;;;;;;;;5023686;28;20292;-51
2023/07/22 02:10:31;;;;;;;;;;;;;;;;;;5027837;28;20070;-52
2023/07/22 02:12:57;;;;;;;;;;;;;;;;;;5012415;28;20371;-52
2023/07/22 02:15:24;;;;;;;;;;;;;;;;;;5021098;28;20012;-52
2023/07/22 02:17:50;;;;;;;;;;;;;;;;;;5009110;28;20369;-52
2023/07/22 02:20:17;;;;;;;;;;;;;;;;;;5010787;28;20328;-51
2023/07/22 02:22:43;;;;;;;;;;;;;;;;;;5027779;28;19913;-51
2023/07/22 02:25:10;;;;;;;;;;;;;;;;;;5028913;28;20276;-52
2023/07/22 02:27:36;;;;;;;;;;;;;;;;;;5027917;28;20395;-52
2023/07/22 02:30:04;;;;;;;;;;;;;;;;;;5027910;28;19909;-52
2023/07/22 02:32:30;;;;;;;;;;;;;;;;;;5025706;28;19913;-52
2023/07/22 02:34:56;;;;;;;;;;;;;;;;;;5024663;28;19919;-52
2023/07/22 02:37:22;;;;;;;;;;;;;;;;;;5036926;28;19911;-52
2023/07/22 02:39:48;;;;;;;;;;;;;;;;;;5027677;28;19948;-52
2023/07/22 02:42:14;;;;;;;;;;;;;;;;;;5028090;28;19952;-52
2023/07/22 02:44:40;;;;;;;;;;;;;;;;;;5031975;28;19913;-51
2023/07/22 02:47:06;;;;;;;;;;;;;;;;;;5032341;28;19920;-52
2023/07/22 02:49:32;;;;;;;;;;;;;;;;;;5030986;28;19905;-52
2023/07/22 02:51:58;;;;;;;;;;;;;;;;;;5016145;28;20399;-52
2023/07/22 02:54:24;;;;;;;;;;;;;;;;;;5030552;28;19916;-51
2023/07/22 02:56:50;;;;;;;;;;;;;;;;;;5017908;28;19960;-52
2023/07/22 02:59:17;;;;;;;;;;;;;;;;;;5028507;28;19952;-51
2023/07/22 03:01:43;;;;;;;;;;;;;;;;;;5031061;28;19913;-52
2023/07/22 03:04:09;;;;;;;;;;;;;;;;;;5030891;28;19913;-52
2023/07/22 03:06:35;;;;;;;;;;;;;;;;;;5020427;28;19995;-52
2023/07/22 03:09:01;;;;;;;;;;;;;;;;;;5012131;28;19984;-52
2023/07/22 03:11:27;;;;;;;;;;;;;;;;;;5026380;28;19971;-52
2023/07/22 03:13:53;;;;;;;;;;;;;;;;;;5032277;28;19996;-52
2023/07/22 03:16:19;;;;;;;;;;;;;;;;;;5030704;28;20004;-51
2023/07/22 03:18:45;;;;;;;;;;;;;;;;;;5031796;28;20042;-51
2023/07/22 03:21:11;;;;;;;;;;;;;;;;;;5027378;28;20031;-52
2023/07/22 03:23:37;;;;;;;;;;;;;;;;;;5030616;28;19912;-52
2023/07/22 03:26:04;;;;;;;;;;;;;;;;;;5030574;28;19916;-52
2023/07/22 03:28:30;;;;;;;;;;;;;;;;;;5028314;28;19919;-52
2023/07/22 03:30:56;;;;;;;;;;;;;;;;;;5011864;28;19921;-52
2023/07/22 03:33:22;;;;;;;;;;;;;;;;;;5021164;28;19956;-52
2023/07/22 03:35:49;;;;;;;;;;;;;;;;;;5016612;28;20293;-52
2023/07/22 03:38:15;;;;;;;;;;;;;;;;;;5030133;28;19912;-52
2023/07/22 03:40:42;;;;;;;;;;;;;;;;;;5030431;28;19913;-52
2023/07/22 03:43:07;;;;;;;;;;;;;;;;;;5030527;28;19966;-51
2023/07/22 03:45:33;;;;;;;;;;;;;;;;;;5029945;28;19915;-52
2023/07/22 03:47:59;;;;;;;;;;;;;;;;;;5030690;28;19959;-52
2023/07/22 03:50:25;;;;;;;;;;;;;;;;;;5024766;28;19949;-52
2023/07/22 03:52:51;;;;;;;;;;;;;;;;;;5017482;28;20003;-51
2023/07/22 03:55:19;;;;;;;;;;;;;;;;;;5025855;28;20241;-52
2023/07/22 03:57:45;;;;;;;;;;;;;;;;;;5029638;28;20357;-52
2023/07/22 04:00:11;;;;;;;;;;;;;;;;;;5027898;28;20005;-51
2023/07/22 04:02:37;;;;;;;;;;;;;;;;;;5028869;28;19960;-51
2023/07/22 04:05:03;;;;;;;;;;;;;;;;;;5027367;28;19917;-52
2023/07/22 04:07:30;;;;;;;;;;;;;;;;;;5029925;28;19923;-52
2023/07/22 04:09:57;;;;;;;;;;;;;;;;;;5031559;28;19913;-52
2023/07/22 04:12:23;;;;;;;;;;;;;;;;;;5030106;28;19913;-52
2023/07/22 04:14:49;;;;;;;;;;;;;;;;;;5028562;28;19913;-52
2023/07/22 04:17:16;;;;;;;;;;;;;;;;;;5016711;28;19956;-52
2023/07/22 04:19:45;;;;;;;;;;;;;;;;;;5025452;28;19913;-52
2023/07/22 04:22:11;;;;;;;;;;;;;;;;;;5010835;28;19909;-52
2023/07/22 04:24:38;;;;;;;;;;;;;;;;;;5010749;28;19996;-52
2023/07/22 04:27:04;;;;;;;;;;;;;;;;;;5022754;28;19917;-52
2023/07/22 04:29:31;;;;;;;;;;;;;;;;;;5014163;28;20368;-52
2023/07/22 04:31:57;;;;;;;;;;;;;;;;;;5029825;28;19932;-52
2023/07/22 04:34:25;;;;;;;;;;;;;;;;;;5025832;28;19960;-52
2023/07/22 04:36:51;;;;;;;;;;;;;;;;;;5032630;28;19913;-51
2023/07/22 04:39:17;;;;;;;;;;;;;;;;;;5029253;28;19948;-51
2023/07/22 04:41:43;;;;;;;;;;;;;;;;;;5029730;28;20379;-52
2023/07/22 04:44:09;;;;;;;;;;;;;;;;;;5030117;28;19913;-52
2023/07/22 04:46:36;;;;;;;;;;;;;;;;;;5029813;28;20323;-52
2023/07/22 04:49:02;;;;;;;;;;;;;;;;;;5012679;28;19920;-52
2023/07/22 04:51:28;;;;;;;;;;;;;;;;;;5009447;28;19914;-52
2023/07/22 04:53:54;;;;;;;;;;;;;;;;;;5019896;28;19955;-52
2023/07/22 04:56:21;;;;;;;;;;;;;;;;;;5016374;28;20381;-53
2023/07/22 04:58:47;;;;;;;;;;;;;;;;;;5027016;28;19936;-51
2023/07/22 05:01:13;;;;;;;;;;;;;;;;;;5027810;28;20020;-53
2023/07/22 05:03:40;;;;;;;;;;;;;;;;;;5014413;28;19913;-52
2023/07/22 05:06:08;;;;;;;;;;;;;;;;;;5011230;28;19921;-53
2023/07/22 05:08:34;;;;;;;;;;;;;;;;;;5022013;28;20265;-52
2023/07/22 05:11:00;;;;;;;;;;;;;;;;;;5052709;28;19912;-52
2023/07/22 05:13:26;;;;;;;;;;;;;;;;;;5021594;28;19913;-52
2023/07/22 05:15:53;;;;;;;;;;;;;;;;;;5041462;28;19917;-52
2023/07/22 05:18:19;;;;;;;;;;;;;;;;;;5010135;28;19913;-51
2023/07/22 05:20:46;;;;;;;;;;;;;;;;;;5015413;28;19909;-52
2023/07/22 05:23:12;;;;;;;;;;;;;;;;;;5023420;28;20092;-52
2023/07/22 05:25:38;;;;;;;;;;;;;;;;;;5016315;28;20034;-52
2023/07/22 05:28:04;;;;;;;;;;;;;;;;;;5022178;28;19913;-52
2023/07/22 05:30:30;;;;;;;;;;;;;;;;;;5020096;28;20369;-52
2023/07/22 05:32:57;;;;;;;;;;;;;;;;;;5029191;28;20222;-52
2023/07/22 05:35:23;;;;;;;;;;;;;;;;;;5014387;28;19956;-52
2023/07/22 05:37:49;;;;;;;;;;;;;;;;;;5028105;28;19913;-52
2023/07/22 05:40:15;;;;;;;;;;;;;;;;;;5028510;28;19909;-52
2023/07/22 05:42:41;;;;;;;;;;;;;;;;;;5013885;28;19975;-52
2023/07/22 05:45:07;;;;;;;;;;;;;;;;;;5027619;28;20031;-52
2023/07/22 05:47:33;;;;;;;;;;;;;;;;;;5028188;28;19964;-52
2023/07/22 05:49:59;;;;;;;;;;;;;;;;;;5026913;28;20047;-52
2023/07/22 05:52:26;;;;;;;;;;;;;;;;;;5027280;28;19905;-52
2023/07/22 05:54:52;;;;;;;;;;;;;;;;;;5019602;28;19974;-52
2023/07/22 05:57:18;;;;;;;;;;;;;;;;;;5028143;28;19928;-52
2023/07/22 05:59:44;;;;;;;;;;;;;;;;;;5026628;28;20389;-52
2023/07/22 06:02:11;;;;;;;;;;;;;;;;;;5010200;28;19963;-52
2023/07/22 06:04:38;;;;;;;;;;;;;;;;;;5023820;28;19967;-52
2023/07/22 06:07:05;;;;;;;;;;;;;;;;;;5024607;28;19925;-52
2023/07/22 06:09:31;;;;;;;;;;;;;;;;;;5028713;28;19999;-52
2023/07/22 06:11:57;;;;;;;;;;;;;;;;;;5028201;28;19975;-52
2023/07/22 06:14:23;;;;;;;;;;;;;;;;;;5011793;28;19960;-52
2023/07/22 06:16:49;;;;;;;;;;;;;;;;;;5007536;28;19948;-52
2023/07/22 06:19:15;;;;;;;;;;;;;;;;;;5009409;28;19920;-52
2023/07/22 06:21:41;;;;;;;;;;;;;;;;;;5025325;28;20685;-52
2023/07/22 06:24:07;;;;;;;;;;;;;;;;;;5028002;28;19913;-52
2023/07/22 06:26:33;;;;;;;;;;;;;;;;;;5027921;28;19921;-52
2023/07/22 06:28:59;;;;;;;;;;;;;;;;;;5025064;28;19955;-52
2023/07/22 06:31:30;;;;;;;;;;;;;;;;;;5015369;28;19967;-52
2023/07/22 06:33:56;;;;;;;;;;;;;;;;;;5017019;28;19959;-52
2023/07/22 06:36:23;;;;;;;;;;;;;;;;;;5008033;28;19913;-52
2023/07/22 06:38:50;;;;;;;;;;;;;;;;;;5024528;28;19913;-52
2023/07/22 06:41:16;;;;;;;;;;;;;;;;;;5016250;28;19909;-52
2023/07/22 06:43:42;;;;;;;;;;;;;;;;;;5028192;28;19963;-52
2023/07/22 06:46:08;;;;;;;;;;;;;;;;;;5026223;28;19917;-52
2023/07/22 06:48:34;;;;;;;;;;;;;;;;;;5024006;28;19968;-52
2023/07/22 06:51:00;;;;;;;;;;;;;;;;;;5020623;28;20646;-54
2023/07/22 06:53:27;;;;;;;;;;;;;;;;;;5023421;28;19910;-52
2023/07/22 06:55:54;;;;;;;;;;;;;;;;;;5009243;28;20004;-52
2023/07/22 06:58:20;;;;;;;;;;;;;;;;;;5009390;28;19971;-52
2023/07/22 07:00:47;;;;;;;;;;;;;;;;;;5013150;28;19909;-52
2023/07/22 07:03:13;;;;;;;;;;;;;;;;;;5021707;28;20310;-52
2023/07/22 07:05:41;;;;;;;;;;;;;;;;;;5024571;28;20288;-52
2023/07/22 07:08:07;;;;;;;;;;;;;;;;;;5021444;28;19943;-52
2023/07/22 07:10:34;;;;;;;;;;;;;;;;;;5009145;28;20385;-52
2023/07/22 07:13:00;;;;;;;;;;;;;;;;;;5013698;28;19909;-52
2023/07/22 07:15:27;;;;;;;;;;;;;;;;;;5014324;28;19964;-52
2023/07/22 07:17:53;;;;;;;;;;;;;;;;;;5010754;28;19913;-52
2023/07/22 07:20:19;;;;;;;;;;;;;;;;;;5027874;28;19913;-52
2023/07/22 07:22:46;;;;;;;;;;;;;;;;;;5023047;28;19916;-52
2023/07/22 07:25:12;;;;;;;;;;;;;;;;;;5027363;28;19934;-52
2023/07/22 07:27:38;;;;;;;;;;;;;;;;;;5023706;28;19910;-53
2023/07/22 07:30:05;;;;;;;;;;;;;;;;;;5041771;28;19975;-53
2023/07/22 07:32:31;;;;;;;;;;;;;;;;;;5014149;28;19916;-53
2023/07/22 07:34:58;;;;;;;;;;;;;;;;;;5028933;28;20027;-53
2023/07/22 07:37:24;;;;;;;;;;;;;;;;;;5030684;28;19905;-52
2023/07/22 07:39:50;;;;;;;;;;;;;;;;;;5032326;28;19916;-53
2023/07/22 07:42:16;;;;;;;;;;;;;;;;;;5030387;28;19909;-53
2023/07/22 07:44:42;;;;;;;;;;;;;;;;;;5031640;28;19955;-52
2023/07/22 07:47:09;;;;;;;;;;;;;;;;;;5027793;28;20009;-51
2023/07/22 07:49:36;;;;;;;;;;;;;;;;;;5030284;28;19995;-52
2023/07/22 07:52:02;;;;;;;;;;;;;;;;;;5030832;28;19909;-52
2023/07/22 07:54:28;;;;;;;;;;;;;;;;;;5031943;28;19960;-52
2023/07/22 07:56:55;;;;;;;;;;;;;;;;;;5030333;28;19916;-51
2023/07/22 07:59:21;;;;;;;;;;;;;;;;;;5032293;28;20396;-52
2023/07/22 08:01:47;;;;;;;;;;;;;;;;;;5024609;28;19940;-51
2023/07/22 08:04:17;;;;;;;;;;;;;;;;;;5011471;28;19971;-51
2023/07/22 08:06:44;;;;;;;;;;;;;;;;;;5008859;28;19921;-52
2023/07/22 08:09:10;;;;;;;;;;;;;;;;;;5011812;28;19917;-51
2023/07/22 08:11:36;;;;;;;;;;;;;;;;;;5009993;28;19956;-52
2023/07/22 08:14:03;;;;;;;;;;;;;;;;;;5011648;28;20006;-52
2023/07/22 08:16:29;;;;;;;;;;;;;;;;;;5011531;28;20281;-51
2023/07/22 08:18:55;;;;;;;;;;;;;;;;;;5013703;28;19956;-52
2023/07/22 08:21:21;;;;;;;;;;;;;;;;;;5010299;28;20234;-51
2023/07/22 08:23:47;;;;;;;;;;;;;;;;;;5028783;28;20328;-51
2023/07/22 08:26:13;;;;;;;;;;;;;;;;;;5030794;28;19917;-52
2023/07/22 08:28:40;;;;;;;;;;;;;;;;;;5030787;28;19911;-51
2023/07/22 08:31:06;;;;;;;;;;;;;;;;;;5031017;28;19916;-51
2023/07/22 08:33:32;;;;;;;;;;;;;;;;;;5025112;28;19963;-52
2023/07/22 08:35:58;;;;;;;;;;;;;;;;;;5022255;28;20056;-50
2023/07/22 08:38:24;;;;;;;;;;;;;;;;;;5010528;28;19909;-53
2023/07/22 08:40:51;;;;;;;;;;;;;;;;;;5020294;28;19919;-52
2023/07/22 08:43:17;;;;;;;;;;;;;;;;;;5030983;28;19913;-52
2023/07/22 08:45:43;;;;;;;;;;;;;;;;;;5030304;28;20038;-52
2023/07/22 08:48:12;;;;;;;;;;;;;;;;;;5023045;28;19975;-51
2023/07/22 08:50:38;;;;;;;;;;;;;;;;;;5009901;28;19906;-52
2023/07/22 08:53:05;;;;;;;;;;;;;;;;;;5010048;28;20273;-52
2023/07/22 08:55:31;;;;;;;;;;;;;;;;;;5030292;28;20458;-52
2023/07/22 08:57:57;;;;;;;;;;;;;;;;;;5029755;28;20322;-52
2023/07/22 09:00:23;;;;;;;;;;;;;;;;;;5029948;28;19970;-52
2023/07/22 09:02:50;;;;;;;;;;;;;;;;;;5026150;28;20000;-52
2023/07/22 09:05:17;;;;;;;;;;;;;;;;;;5026355;28;19917;-51
2023/07/22 09:07:43;;;;;;;;;;;;;;;;;;5030268;28;20012;-52
2023/07/22 09:10:09;;;;;;;;;;;;;;;;;;5030046;28;19917;-52
2023/07/22 09:12:40;;;;;;;;;;;;;;;;;;5030250;28;19913;-52
2023/07/22 09:15:06;;;;;;;;;;;;;;;;;;5028250;28;19992;-52
2023/07/22 09:17:33;;;;;;;;;;;;;;;;;;5031232;28;19913;-53
2023/07/22 09:19:59;;;;;;;;;;;;;;;;;;5049498;28;20278;-52
2023/07/22 09:22:26;;;;;;;;;;;;;;;;;;5049621;28;20357;-53
2023/07/22 09:24:52;;;;;;;;;;;;;;;;;;5049769;28;19908;-52
2023/07/22 09:27:18;;;;;;;;;;;;;;;;;;5049643;28;20035;-52
2023/07/22 09:29:47;;;;;;;;;;;;;;;;;;5049488;28;19904;-51
2023/07/22 09:32:13;;;;;;;;;;;;;;;;;;5031983;28;19923;-52
2023/07/22 09:34:39;;;;;;;;;;;;;;;;;;5027427;28;20288;-53
2023/07/22 09:37:06;;;;;;;;;;;;;;;;;;5029499;28;19905;-52
2023/07/22 09:39:32;;;;;;;;;;;;;;;;;;5029663;28;19996;-52
2023/07/22 09:42:01;;;;;;;;;;;;;;;;;;5029238;28;19984;-52
2023/07/22 09:44:27;;;;;;;;;;;;;;;;;;5028724;28;19913;-52
2023/07/22 09:46:53;;;;;;;;;;;;;;;;;;5019602;28;19921;-53
2023/07/22 09:49:20;;;;;;;;;;;;;;;;;;5024790;28;19963;-53
2023/07/22 09:51:46;;;;;;;;;;;;;;;;;;5008467;28;19971;-53
2023/07/22 09:54:12;;;;;;;;;;;;;;;;;;5024546;28;19917;-53
2023/07/22 09:56:38;;;;;;;;;;;;;;;;;;5009555;28;20309;-53
2023/07/22 09:59:05;;;;;;;;;;;;;;;;;;5018298;28;21956;-53
2023/07/22 10:01:31;;;;;;;;;;;;;;;;;;5026312;28;19944;-52
2023/07/22 10:03:57;;;;;;;;;;;;;;;;;;5026445;28;19944;-52
2023/07/22 10:06:23;;;;;;;;;;;;;;;;;;5007183;28;19979;-53
2023/07/22 10:08:49;;;;;;;;;;;;;;;;;;5009976;28;19913;-52
2023/07/22 10:11:15;;;;;;;;;;;;;;;;;;5009424;28;20342;-52
2023/07/22 10:13:41;;;;;;;;;;;;;;;;;;5010195;28;20642;-51
2023/07/22 10:16:07;;;;;;;;;;;;;;;;;;5040549;28;20064;-52
2023/07/22 10:18:34;;;;;;;;;;;;;;;;;;5033134;28;19913;-52
2023/07/22 10:21:00;;;;;;;;;;;;;;;;;;5027499;28;20326;-53
2023/07/22 10:23:26;;;;;;;;;;;;;;;;;;5027759;28;20416;-52
2023/07/22 10:25:53;;;;;;;;;;;;;;;;;;5028769;28;20417;-53
2023/07/22 10:28:19;;;;;;;;;;;;;;;;;;5028916;28;19916;-52
2023/07/22 10:30:45;;;;;;;;;;;;;;;;;;5028884;28;19909;-53
2023/07/22 10:33:12;;;;;;;;;;;;;;;;;;5013851;28;20000;-53
2023/07/22 10:35:38;;;;;;;;;;;;;;;;;;5008604;28;19910;-53
2023/07/22 10:38:03;;;;;;;;;;;;;;;;;;5008690;28;20362;-53
2023/07/22 10:40:30;;;;;;;;;;;;;;;;;;5015322;28;20353;-53
2023/07/22 10:42:56;;;;;;;;;;;;;;;;;;5027981;28;20026;-54
2023/07/22 10:45:22;;;;;;;;;;;;;;;;;;5028940;28;19959;-56
2023/07/22 10:47:48;;;;;;;;;;;;;;;;;;5012960;28;20131;-54
2023/07/22 10:50:15;;;;;;;;;;;;;;;;;;5027958;28;19905;-53
2023/07/22 10:52:42;;;;;;;;;;;;;;;;;;5028599;28;19905;-53
2023/07/22 10:55:08;;;;;;;;;;;;;;;;;;5028723;28;19916;-53
2023/07/22 10:57:34;;;;;;;;;;;;;;;;;;5015548;28;19918;-53
2023/07/22 11:00:00;;;;;;;;;;;;;;;;;;5008755;28;20293;-53
2023/07/22 11:02:26;;;;;;;;;;;;;;;;;;5011122;28;19967;-54
2023/07/22 11:04:52;;;;;;;;;;;;;;;;;;5020738;28;19956;-53
2023/07/22 11:07:18;;;;;;;;;;;;;;;;;;5030661;28;19924;-54
2023/07/22 11:09:44;;;;;;;;;;;;;;;;;;5030516;28;19998;-53
2023/07/22 11:12:10;;;;;;;;;;;;;;;;;;5043979;28;19967;-54
2023/07/22 11:14:36;;;;;;;;;;;;;;;;;;5012516;28;19927;-54
2023/07/22 11:17:05;;;;;;;;;;;;;;;;;;5043735;28;20031;-54
2023/07/22 11:19:32;;;;;;;;;;;;;;;;;;5018181;28;19913;-53
2023/07/22 11:21:58;;;;;;;;;;;;;;;;;;5042625;28;19992;-54
2023/07/22 11:24:25;;;;;;;;;;;;;;;;;;5012505;28;20320;-55
2023/07/22 11:26:51;;;;;;;;;;;;;;;;;;5043826;28;20333;-53
2023/07/22 11:29:17;;;;;;;;;;;;;;;;;;5012625;28;20350;-53
2023/07/22 11:31:45;;;;;;;;;;;;;;;;;;5018015;28;19917;-53
2023/07/22 11:34:11;;;;;;;;;;;;;;;;;;5044165;28;19913;-54
2023/07/22 11:36:37;;;;;;;;;;;;;;;;;;5011083;28;20437;-54
2023/07/22 11:39:04;;;;;;;;;;;;;;;;;;5022566;28;20020;-53
2023/07/22 11:41:30;;;;;;;;;;;;;;;;;;5031584;28;20058;-53
2023/07/22 11:43:56;;;;;;;;;;;;;;;;;;5032177;28;19905;-53
2023/07/22 11:46:22;;;;;;;;;;;;;;;;;;5025582;28;20404;-54
2023/07/22 11:48:48;;;;;;;;;;;;;;;;;;5012653;28;19913;-54
2023/07/22 11:51:14;;;;;;;;;;;;;;;;;;5011444;28;19988;-53
2023/07/22 11:53:40;;;;;;;;;;;;;;;;;;5011944;28;20382;-53
2023/07/22 11:56:06;;;;;;;;;;;;;;;;;;5026654;28;19945;-53
2023/07/22 11:58:32;;;;;;;;;;;;;;;;;;5016493;28;20000;-55
2023/07/22 12:00:58;;;;;;;;;;;;;;;;;;5030514;28;19916;-54
2023/07/22 12:03:24;;;;;;;;;;;;;;;;;;5016557;28;19905;-54
2023/07/22 12:05:51;;;;;;;;;;;;;;;;;;5025586;28;19917;-54
2023/07/22 12:08:17;;;;;;;;;;;;;;;;;;5029760;28;20015;-55
2023/07/22 12:10:43;;;;;;;;;;;;;;;;;;5031145;28;20352;-53
2023/07/22 12:13:09;;;;;;;;;;;;;;;;;;5023525;28;19941;-54
2023/07/22 12:15:36;;;;;;;;;;;;;;;;;;5029450;28;19913;-54
2023/07/22 12:18:03;;;;;;;;;;;;;;;;;;5013685;28;20349;-54
2023/07/22 12:20:29;;;;;;;;;;;;;;;;;;5009409;28;19964;-54
2023/07/22 12:22:55;;;;;;;;;;;;;;;;;;5010807;28;19944;-52
2023/07/22 12:25:21;;;;;;;;;;;;;;;;;;5011195;28;19991;-54
2023/07/22 12:27:48;;;;;;;;;;;;;;;;;;5013279;28;20272;-54
2023/07/22 12:30:15;;;;;;;;;;;;;;;;;;5028672;28;19920;-52
2023/07/22 12:32:41;;;;;;;;;;;;;;;;;;5013543;28;20346;-55
2023/07/22 12:35:07;;;;;;;;;;;;;;;;;;5020069;28;19919;-54
2023/07/22 12:37:33;;;;;;;;;;;;;;;;;;5016739;28;19967;-53
2023/07/22 12:39:59;;;;;;;;;;;;;;;;;;5030196;28;19909;-54
2023/07/22 12:42:25;;;;;;;;;;;;;;;;;;5030396;28;20316;-53
2023/07/22 12:44:51;;;;;;;;;;;;;;;;;;5030586;28;20315;-54
2023/07/22 12:47:18;;;;;;;;;;;;;;;;;;5013979;28;19913;-54
2023/07/22 12:49:44;;;;;;;;;;;;;;;;;;5010052;28;19917;-53
2023/07/22 12:52:11;;;;;;;;;;;;;;;;;;5009734;28;19909;-54
2023/07/22 12:54:38;;;;;;;;;;;;;;;;;;5010877;28;19905;-54
2023/07/22 12:57:04;;;;;;;;;;;;;;;;;;5015497;28;19924;-54
2023/07/22 12:59:30;;;;;;;;;;;;;;;;;;5030834;28;19936;-53
2023/07/22 13:01:57;;;;;;;;;;;;;;;;;;5017950;28;19913;-53
2023/07/22 13:04:23;;;;;;;;;;;;;;;;;;5013497;28;20312;-54
2023/07/22 13:06:49;;;;;;;;;;;;;;;;;;5028022;28;20055;-53
2023/07/22 13:09:15;;;;;;;;;;;;;;;;;;5028349;28;19913;-54
2023/07/22 13:11:42;;;;;;;;;;;;;;;;;;5030212;28;19916;-54
2023/07/22 13:14:08;;;;;;;;;;;;;;;;;;5030018;28;20008;-53
2023/07/22 13:16:34;;;;;;;;;;;;;;;;;;5024372;28;19917;-54
2023/07/22 13:19:02;;;;;;;;;;;;;;;;;;5010318;28;19909;-54
2023/07/22 13:21:29;;;;;;;;;;;;;;;;;;5009188;28;19930;-54
2023/07/22 13:23:55;;;;;;;;;;;;;;;;;;5010398;28;19910;-58
2023/07/22 13:26:21;;;;;;;;;;;;;;;;;;5009239;28;19959;-54
2023/07/22 13:28:47;;;;;;;;;;;;;;;;;;5026569;28;19959;-54
2023/07/22 13:31:16;;;;;;;;;;;;;;;;;;5028277;28;19916;-55
2023/07/22 13:33:42;;;;;;;;;;;;;;;;;;5029784;28;20292;-54
2023/07/22 13:36:09;;;;;;;;;;;;;;;;;;5029070;28;19905;-56
2023/07/22 13:38:35;;;;;;;;;;;;;;;;;;5024057;28;20357;-55
2023/07/22 13:41:01;;;;;;;;;;;;;;;;;;5010026;28;20003;-54
2023/07/22 13:43:28;;;;;;;;;;;;;;;;;;5009854;28;19948;-54
2023/07/22 13:45:54;;;;;;;;;;;;;;;;;;5012690;28;19917;-54
2023/07/22 13:48:20;;;;;;;;;;;;;;;;;;5024309;28;19917;-54
2023/07/22 13:50:47;;;;;;;;;;;;;;;;;;5029062;28;20120;-54
2023/07/22 13:53:12;;;;;;;;;;;;;;;;;;5029055;28;19995;-55
2023/07/22 13:55:38;;;;;;;;;;;;;;;;;;5029437;28;19912;-55
2023/07/22 13:58:05;;;;;;;;;;;;;;;;;;5021381;28;20281;-54
2023/07/22 14:00:31;;;;;;;;;;;;;;;;;;5009601;28;19910;-54
2023/07/22 14:02:58;;;;;;;;;;;;;;;;;;5017458;28;19913;-54
2023/07/22 14:05:24;;;;;;;;;;;;;;;;;;5010806;28;20294;-54
2023/07/22 14:07:51;;;;;;;;;;;;;;;;;;5008547;28;20259;-54
2023/07/22 14:10:17;;;;;;;;;;;;;;;;;;5009510;28;20050;-54
2023/07/22 14:12:43;;;;;;;;;;;;;;;;;;5048414;28;19913;-55
2023/07/22 14:15:10;;;;;;;;;;;;;;;;;;5023866;28;19964;-54
2023/07/22 14:17:38;;;;;;;;;;;;;;;;;;5011198;28;20366;-56
2023/07/22 14:20:04;;;;;;;;;;;;;;;;;;5008963;28;19909;-54
2023/07/22 14:22:31;;;;;;;;;;;;;;;;;;5018003;28;19913;-55
2023/07/22 14:24:57;;;;;;;;;;;;;;;;;;5028822;28;20498;-55
2023/07/22 14:27:23;;;;;;;;;;;;;;;;;;5029254;28;19967;-54
2023/07/22 14:29:49;;;;;;;;;;;;;;;;;;5028001;28;19991;-53
2023/07/22 14:32:18;;;;;;;;;;;;;;;;;;5032680;28;19905;-55
2023/07/22 14:34:44;;;;;;;;;;;;;;;;;;5048255;28;20372;-54
2023/07/22 14:37:10;;;;;;;;;;;;;;;;;;5048611;28;20259;-55
2023/07/22 14:39:37;;;;;;;;;;;;;;;;;;5047229;28;19915;-55
2023/07/22 14:42:03;;;;;;;;;;;;;;;;;;5022626;28;20362;-54
2023/07/22 14:44:29;;;;;;;;;;;;;;;;;;5013023;28;19916;-55
2023/07/22 14:46:56;;;;;;;;;;;;;;;;;;5027776;28;19962;-55
2023/07/22 14:49:22;;;;;;;;;;;;;;;;;;5032914;28;19909;-54
2023/07/22 14:51:48;;;;;;;;;;;;;;;;;;5026569;28;20395;-55
2023/07/22 14:54:15;;;;;;;;;;;;;;;;;;5012645;28;19917;-55
2023/07/22 14:56:41;;;;;;;;;;;;;;;;;;5012840;28;20340;-55
2023/07/22 14:59:07;;;;;;;;;;;;;;;;;;5027274;28;19913;-55
2023/07/22 15:01:33;;;;;;;;;;;;;;;;;;5026400;28;19966;-54
2023/07/22 15:03:59;;;;;;;;;;;;;;;;;;5049499;28;19986;-55
2023/07/22 15:06:26;;;;;;;;;;;;;;;;;;5031176;28;19917;-55
2023/07/22 15:08:52;;;;;;;;;;;;;;;;;;5032483;28;19909;-54
2023/07/22 15:11:19;;;;;;;;;;;;;;;;;;5030374;28;19917;-55
2023/07/22 15:13:45;;;;;;;;;;;;;;;;;;5032493;28;20396;-54
2023/07/22 15:16:12;;;;;;;;;;;;;;;;;;5029104;28;19920;-55
2023/07/22 15:18:39;;;;;;;;;;;;;;;;;;5052018;28;19948;-55
2023/07/22 15:21:05;;;;;;;;;;;;;;;;;;5051926;28;19909;-55
2023/07/22 15:23:31;;;;;;;;;;;;;;;;;;5051584;28;19948;-55
2023/07/22 15:25:58;;;;;;;;;;;;;;;;;;5035844;28;20276;-55
2023/07/22 15:28:24;;;;;;;;;;;;;;;;;;5029761;28;19923;-55
2023/07/22 15:30:50;;;;;;;;;;;;;;;;;;5028242;28;19917;-55
2023/07/22 15:33:16;;;;;;;;;;;;;;;;;;5031910;28;19913;-54
2023/07/22 15:35:43;;;;;;;;;;;;;;;;;;5029285;28;20368;-54
2023/07/22 15:38:09;;;;;;;;;;;;;;;;;;5012836;28;19992;-54
2023/07/22 15:40:35;;;;;;;;;;;;;;;;;;5012365;28;19910;-53
2023/07/22 15:43:01;;;;;;;;;;;;;;;;;;5017764;28;20463;-54
2023/07/22 15:45:27;;;;;;;;;;;;;;;;;;5026735;28;20352;-55
2023/07/22 15:47:54;;;;;;;;;;;;;;;;;;5016120;28;19913;-54
2023/07/22 15:50:20;;;;;;;;;;;;;;;;;;5010664;28;19915;-54
2023/07/22 15:52:46;;;;;;;;;;;;;;;;;;5026574;28;20260;-53
2023/07/22 15:55:12;;;;;;;;;;;;;;;;;;5012007;28;20341;-53
2023/07/22 15:57:39;;;;;;;;;;;;;;;;;;5027930;28;19951;-55
2023/07/22 16:00:09;;;;;;;;;;;;;;;;;;5023773;28;19913;-55
2023/07/22 16:02:35;;;;;;;;;;;;;;;;;;5044899;28;19962;-54
2023/07/22 16:05:01;;;;;;;;;;;;;;;;;;5041677;28;20067;-55
2023/07/22 16:07:27;;;;;;;;;;;;;;;;;;5011376;28;19956;-55
2023/07/22 16:09:54;;;;;;;;;;;;;;;;;;5016428;28;20003;-53
2023/07/22 16:12:20;;;;;;;;;;;;;;;;;;5030343;28;20297;-53
2023/07/22 16:14:46;;;;;;;;;;;;;;;;;;5025945;28;20378;-54
2023/07/22 16:17:12;;;;;;;;;;;;;;;;;;5011429;28;19953;-54
2023/07/22 16:19:38;;;;;;;;;;;;;;;;;;5011177;28;19932;-54
2023/07/22 16:22:04;;;;;;;;;;;;;;;;;;5011328;28;19913;-54
2023/07/22 16:24:30;;;;;;;;;;;;;;;;;;5011514;28;20326;-55
2023/07/22 16:26:57;;;;;;;;;;;;;;;;;;5024049;28;20399;-53
2023/07/22 16:29:22;;;;;;;;;;;;;;;;;;5013054;28;19945;-55
2023/07/22 16:31:49;;;;;;;;;;;;;;;;;;5016278;28;19909;-55
2023/07/22 16:34:15;;;;;;;;;;;;;;;;;;5029477;28;19916;-54
2023/07/22 16:36:41;;;;;;;;;;;;;;;;;;5030067;28;19940;-55
2023/07/22 16:39:07;;;;;;;;;;;;;;;;;;5030827;28;19967;-55